Joyant — WCU3465 — position and weather

sailwx.info

Track history (hours):
 
Tides and Currents Weather Stations Pressure Air Temp Water Temp Dewpoint Dewpoint Depression Visibility Wind Speed Wind Dir Waves Ship Positions

Joyant

Owner: WADLOW, THOMAS S, Stonington, CT. More information available from US FCC via Universal Licensing System and Coast Guard Vessel Documentation Center.

Last reported at 2016-Aug-18 10:31 UTC. Time now 2016-Sep-29 06:50 UTC.
Position N 42°27' W 070°47'.
Warning: this ship's position is 41 days out of date.

Length 16 m.

Type: Sailing vessel. MMSI: 367053390.

Date/timePositionNaut miles runAvg speedWind from/ knotsBaromVisibWave heightAir tempDewpointWater temp
2016-Aug-18 10:31N 42°27' W 070°47'4 0.1
2016-Aug-16 12:15N 42°30' W 070°50'0 0.0
2016-Aug-16 11:32N 42°30' W 070°50'0 0.0
2016-Aug-16 07:26N 42°30' W 070°50'0 0.0
2016-Aug-16 04:32N 42°30' W 070°50'0 0.0
2016-Aug-16 03:26N 42°30' W 070°50'0 0.0
2016-Aug-16 02:29N 42°30' W 070°50'0 0.0
2016-Aug-16 01:29N 42°30' W 070°50'4 0.1
2016-Aug-14 18:06N 42°33' W 070°46'3 5.4
2016-Aug-14 17:33N 42°34' W 070°42'6 6.2
2016-Aug-14 16:33N 42°37' W 070°35'7 7.3
2016-Aug-14 15:33N 42°44' W 070°32'  
Track history (hours):
 
Tides and Currents Weather Stations Pressure Air Temp Water Temp Dewpoint Dewpoint Depression Visibility Wind Speed Wind Dir Waves Ship Positions

Joyant

Owner: WADLOW, THOMAS S, Stonington, CT. More information available from US FCC via Universal Licensing System and Coast Guard Vessel Documentation Center.

Last reported at 2016-Aug-18 10:31 UTC. Time now 2016-Sep-29 06:50 UTC.
Position N 42°27' W 070°47'.
Warning: this ship's position is 41 days out of date.

Length 16 m.

Type: Sailing vessel. MMSI: 367053390.

Date/timePositionNaut miles runAvg speedWind from/ knotsBaromVisibWave heightAir tempDewpointWater temp
2016-Aug-18 10:31N 42°27' W 070°47'4 0.1
2016-Aug-16 12:15N 42°30' W 070°50'0 0.0
2016-Aug-16 11:32N 42°30' W 070°50'0 0.0
2016-Aug-16 07:26N 42°30' W 070°50'0 0.0
2016-Aug-16 04:32N 42°30' W 070°50'0 0.0
2016-Aug-16 03:26N 42°30' W 070°50'0 0.0
2016-Aug-16 02:29N 42°30' W 070°50'0 0.0
2016-Aug-16 01:29N 42°30' W 070°50'4 0.1
2016-Aug-14 18:06N 42°33' W 070°46'3 5.4
2016-Aug-14 17:33N 42°34' W 070°42'6 6.2
2016-Aug-14 16:33N 42°37' W 070°35'7 7.3
2016-Aug-14 15:33N 42°44' W 070°32'  

Dump ship's entire track history